sensor_id;sensor_type;location;lat;lon;timestamp;temperature;humidity
21568;DHT22;10944;42.590;12.630;2022-09-13T00:01:46;19.70;93.70
21568;DHT22;10944;42.590;12.630;2022-09-13T00:04:12;19.80;93.70
21568;DHT22;10944;42.590;12.630;2022-09-13T00:06:38;19.80;93.80
21568;DHT22;10944;42.590;12.630;2022-09-13T00:09:04;19.70;94.40
21568;DHT22;10944;42.590;12.630;2022-09-13T00:11:30;19.70;93.90
21568;DHT22;10944;42.590;12.630;2022-09-13T00:13:57;19.70;95.20
21568;DHT22;10944;42.590;12.630;2022-09-13T00:16:25;19.50;95.10
21568;DHT22;10944;42.590;12.630;2022-09-13T00:18:52;19.40;95.20
21568;DHT22;10944;42.590;12.630;2022-09-13T00:21:20;19.30;95.40
21568;DHT22;10944;42.590;12.630;2022-09-13T00:23:48;19.30;95.40
21568;DHT22;10944;42.590;12.630;2022-09-13T00:26:16;19.20;95.80
21568;DHT22;10944;42.590;12.630;2022-09-13T00:28:42;19.10;96.10
21568;DHT22;10944;42.590;12.630;2022-09-13T00:31:10;19.10;96.20
21568;DHT22;10944;42.590;12.630;2022-09-13T00:33:36;19.10;96.00
21568;DHT22;10944;42.590;12.630;2022-09-13T00:36:08;18.90;96.40
21568;DHT22;10944;42.590;12.630;2022-09-13T00:38:38;18.80;97.00
21568;DHT22;10944;42.590;12.630;2022-09-13T00:41:06;18.70;97.10
21568;DHT22;10944;42.590;12.630;2022-09-13T00:46:16;18.60;96.90
21568;DHT22;10944;42.590;12.630;2022-09-13T00:48:45;18.50;96.90
21568;DHT22;10944;42.590;12.630;2022-09-13T00:51:11;18.40;97.20
21568;DHT22;10944;42.590;12.630;2022-09-13T00:53:42;18.40;97.10
21568;DHT22;10944;42.590;12.630;2022-09-13T00:56:12;18.40;97.30
21568;DHT22;10944;42.590;12.630;2022-09-13T00:58:53;18.30;97.50
21568;DHT22;10944;42.590;12.630;2022-09-13T01:01:26;18.30;97.80
21568;DHT22;10944;42.590;12.630;2022-09-13T01:03:53;18.20;98.00
21568;DHT22;10944;42.590;12.630;2022-09-13T01:06:24;18.10;98.20
21568;DHT22;10944;42.590;12.630;2022-09-13T01:08:54;18.00;98.50
21568;DHT22;10944;42.590;12.630;2022-09-13T01:11:50;18.00;98.50
21568;DHT22;10944;42.590;12.630;2022-09-13T01:14:18;18.00;98.90
21568;DHT22;10944;42.590;12.630;2022-09-13T01:16:45;18.00;98.70
21568;DHT22;10944;42.590;12.630;2022-09-13T01:19:11;18.10;98.40
21568;DHT22;10944;42.590;12.630;2022-09-13T01:38:25;17.90;98.60
21568;DHT22;10944;42.590;12.630;2022-09-13T01:47:02;17.90;98.90
21568;DHT22;10944;42.590;12.630;2022-09-13T01:52:04;17.80;99.10
21568;DHT22;10944;42.590;12.630;2022-09-13T01:54:40;17.80;99.30
21568;DHT22;10944;42.590;12.630;2022-09-13T01:57:16;17.70;99.10
21568;DHT22;10944;42.590;12.630;2022-09-13T02:02:33;17.70;99.20
21568;DHT22;10944;42.590;12.630;2022-09-13T02:05:21;17.70;99.50
21568;DHT22;10944;42.590;12.630;2022-09-13T02:07:55;17.70;99.60
21568;DHT22;10944;42.590;12.630;2022-09-13T02:10:30;17.70;99.80
21568;DHT22;10944;42.590;12.630;2022-09-13T02:12:58;17.70;99.70
21568;DHT22;10944;42.590;12.630;2022-09-13T02:15:50;17.70;99.60
21568;DHT22;10944;42.590;12.630;2022-09-13T02:18:40;17.70;99.80
21568;DHT22;10944;42.590;12.630;2022-09-13T02:21:14;17.70;99.90
21568;DHT22;10944;42.590;12.630;2022-09-13T02:23:46;17.50;99.90
21568;DHT22;10944;42.590;12.630;2022-09-13T02:26:14;17.40;99.90
21568;DHT22;10944;42.590;12.630;2022-09-13T02:28:51;17.40;99.40
21568;DHT22;10944;42.590;12.630;2022-09-13T02:31:25;17.50;99.30
21568;DHT22;10944;42.590;12.630;2022-09-13T02:34:00;17.80;98.50
21568;DHT22;10944;42.590;12.630;2022-09-13T02:36:31;17.90;98.60
21568;DHT22;10944;42.590;12.630;2022-09-13T02:39:18;18.00;98.30
21568;DHT22;10944;42.590;12.630;2022-09-13T02:42:16;18.10;98.40
21568;DHT22;10944;42.590;12.630;2022-09-13T02:44:54;18.00;98.50
21568;DHT22;10944;42.590;12.630;2022-09-13T02:50:06;17.90;98.60
21568;DHT22;10944;42.590;12.630;2022-09-13T02:52:50;17.80;99.10
21568;DHT22;10944;42.590;12.630;2022-09-13T02:55:55;17.70;99.80
21568;DHT22;10944;42.590;12.630;2022-09-13T03:00:59;17.50;99.60
21568;DHT22;10944;42.590;12.630;2022-09-13T03:03:25;17.50;99.90
21568;DHT22;10944;42.590;12.630;2022-09-13T03:05:52;17.50;99.90
21568;DHT22;10944;42.590;12.630;2022-09-13T03:08:18;17.50;99.90
21568;DHT22;10944;42.590;12.630;2022-09-13T03:11:11;17.50;99.90
21568;DHT22;10944;42.590;12.630;2022-09-13T03:29:36;17.50;99.80
21568;DHT22;10944;42.590;12.630;2022-09-13T03:32:22;17.60;99.60
21568;DHT22;10944;42.590;12.630;2022-09-13T03:34:58;17.50;99.60
21568;DHT22;10944;42.590;12.630;2022-09-13T03:37:34;17.50;99.90
21568;DHT22;10944;42.590;12.630;2022-09-13T03:40:09;17.40;99.90
21568;DHT22;10944;42.590;12.630;2022-09-13T03:42:50;17.30;99.90
21568;DHT22;10944;42.590;12.630;2022-09-13T03:45:20;17.30;99.90
21568;DHT22;10944;42.590;12.630;2022-09-13T03:47:48;17.30;99.90
21568;DHT22;10944;42.590;12.630;2022-09-13T03:50:20;17.20;99.90
21568;DHT22;10944;42.590;12.630;2022-09-13T03:52:51;17.50;99.70
21568;DHT22;10944;42.590;12.630;2022-09-13T03:55:22;17.60;99.60
21568;DHT22;10944;42.590;12.630;2022-09-13T03:57:48;17.80;99.20
21568;DHT22;10944;42.590;12.630;2022-09-13T04:00:14;17.70;99.80
21568;DHT22;10944;42.590;12.630;2022-09-13T04:02:42;17.60;99.90
21568;DHT22;10944;42.590;12.630;2022-09-13T04:05:08;17.50;99.90
21568;DHT22;10944;42.590;12.630;2022-09-13T04:07:34;17.50;99.90
21568;DHT22;10944;42.590;12.630;2022-09-13T04:10:00;17.40;99.90
21568;DHT22;10944;42.590;12.630;2022-09-13T04:12:25;17.30;99.90
21568;DHT22;10944;42.590;12.630;2022-09-13T04:14:52;17.30;99.90
21568;DHT22;10944;42.590;12.630;2022-09-13T04:17:18;17.20;99.90
21568;DHT22;10944;42.590;12.630;2022-09-13T04:19:44;17.20;99.90
21568;DHT22;10944;42.590;12.630;2022-09-13T04:22:11;17.10;99.90
21568;DHT22;10944;42.590;12.630;2022-09-13T04:24:38;17.10;99.90
21568;DHT22;10944;42.590;12.630;2022-09-13T04:27:04;17.00;99.90
21568;DHT22;10944;42.590;12.630;2022-09-13T04:29:30;17.00;99.90
21568;DHT22;10944;42.590;12.630;2022-09-13T04:31:57;16.80;99.90
21568;DHT22;10944;42.590;12.630;2022-09-13T04:34:23;16.80;99.90
21568;DHT22;10944;42.590;12.630;2022-09-13T04:36:50;16.80;99.90
21568;DHT22;10944;42.590;12.630;2022-09-13T04:39:17;16.80;99.90
21568;DHT22;10944;42.590;12.630;2022-09-13T04:41:45;16.80;99.90
21568;DHT22;10944;42.590;12.630;2022-09-13T04:44:11;16.70;99.90
21568;DHT22;10944;42.590;12.630;2022-09-13T04:46:37;16.70;99.90
21568;DHT22;10944;42.590;12.630;2022-09-13T04:49:03;16.70;99.90
21568;DHT22;10944;42.590;12.630;2022-09-13T04:51:29;16.70;99.90
21568;DHT22;10944;42.590;12.630;2022-09-13T04:53:55;16.70;99.90
21568;DHT22;10944;42.590;12.630;2022-09-13T04:56:24;16.70;99.90
21568;DHT22;10944;42.590;12.630;2022-09-13T04:58:50;16.70;99.90
21568;DHT22;10944;42.590;12.630;2022-09-13T05:01:16;16.60;99.90
21568;DHT22;10944;42.590;12.630;2022-09-13T05:03:42;16.60;99.90
21568;DHT22;10944;42.590;12.630;2022-09-13T05:06:12;16.70;99.90
21568;DHT22;10944;42.590;12.630;2022-09-13T05:08:38;16.80;99.90
21568;DHT22;10944;42.590;12.630;2022-09-13T05:11:05;16.90;99.90
21568;DHT22;10944;42.590;12.630;2022-09-13T05:13:32;17.00;99.90
21568;DHT22;10944;42.590;12.630;2022-09-13T05:16:05;17.10;99.90
21568;DHT22;10944;42.590;12.630;2022-09-13T05:18:33;17.10;99.90
21568;DHT22;10944;42.590;12.630;2022-09-13T05:21:01;17.20;99.90
21568;DHT22;10944;42.590;12.630;2022-09-13T05:23:28;17.20;99.90
21568;DHT22;10944;42.590;12.630;2022-09-13T05:25:56;17.10;99.90
21568;DHT22;10944;42.590;12.630;2022-09-13T05:28:22;17.10;99.90
21568;DHT22;10944;42.590;12.630;2022-09-13T05:30:59;17.20;99.90
21568;DHT22;10944;42.590;12.630;2022-09-13T05:33:27;17.20;99.90
21568;DHT22;10944;42.590;12.630;2022-09-13T05:35:54;17.20;99.90
21568;DHT22;10944;42.590;12.630;2022-09-13T05:38:20;17.30;99.90
21568;DHT22;10944;42.590;12.630;2022-09-13T05:40:46;17.30;99.90
21568;DHT22;10944;42.590;12.630;2022-09-13T05:43:12;17.50;99.90
21568;DHT22;10944;42.590;12.630;2022-09-13T05:45:39;17.60;99.90
21568;DHT22;10944;42.590;12.630;2022-09-13T05:48:05;17.70;99.90
21568;DHT22;10944;42.590;12.630;2022-09-13T05:50:31;17.70;99.90
21568;DHT22;10944;42.590;12.630;2022-09-13T05:52:56;17.70;99.90
21568;DHT22;10944;42.590;12.630;2022-09-13T05:55:22;17.90;99.90
21568;DHT22;10944;42.590;12.630;2022-09-13T05:57:48;18.00;99.90
21568;DHT22;10944;42.590;12.630;2022-09-13T06:00:15;18.20;99.90
21568;DHT22;10944;42.590;12.630;2022-09-13T06:02:41;18.40;99.90
21568;DHT22;10944;42.590;12.630;2022-09-13T06:05:10;18.60;99.90
21568;DHT22;10944;42.590;12.630;2022-09-13T06:07:39;18.60;99.90
21568;DHT22;10944;42.590;12.630;2022-09-13T06:10:07;18.70;99.30
21568;DHT22;10944;42.590;12.630;2022-09-13T06:12:33;18.80;98.90
21568;DHT22;10944;42.590;12.630;2022-09-13T06:14:58;19.00;98.30
21568;DHT22;10944;42.590;12.630;2022-09-13T06:17:24;19.20;98.70
21568;DHT22;10944;42.590;12.630;2022-09-13T06:19:50;19.20;98.60
21568;DHT22;10944;42.590;12.630;2022-09-13T06:22:16;19.30;98.60
21568;DHT22;10944;42.590;12.630;2022-09-13T06:24:41;19.40;97.90
21568;DHT22;10944;42.590;12.630;2022-09-13T06:27:07;19.50;97.50
21568;DHT22;10944;42.590;12.630;2022-09-13T06:29:35;19.60;97.90
21568;DHT22;10944;42.590;12.630;2022-09-13T06:32:02;19.60;97.50
21568;DHT22;10944;42.590;12.630;2022-09-13T06:34:27;19.70;97.60
21568;DHT22;10944;42.590;12.630;2022-09-13T06:36:53;19.80;98.10
21568;DHT22;10944;42.590;12.630;2022-09-13T06:39:19;19.80;97.90
21568;DHT22;10944;42.590;12.630;2022-09-13T06:41:45;19.90;98.10
21568;DHT22;10944;42.590;12.630;2022-09-13T06:44:11;19.90;97.80
21568;DHT22;10944;42.590;12.630;2022-09-13T06:46:37;20.00;97.90
21568;DHT22;10944;42.590;12.630;2022-09-13T06:49:05;20.20;97.40
21568;DHT22;10944;42.590;12.630;2022-09-13T06:51:32;20.30;97.50
21568;DHT22;10944;42.590;12.630;2022-09-13T06:53:59;20.30;97.30
21568;DHT22;10944;42.590;12.630;2022-09-13T06:56:29;20.40;97.10
21568;DHT22;10944;42.590;12.630;2022-09-13T06:59:01;20.50;96.80
21568;DHT22;10944;42.590;12.630;2022-09-13T07:01:31;20.60;97.10
21568;DHT22;10944;42.590;12.630;2022-09-13T07:03:59;20.60;97.20
21568;DHT22;10944;42.590;12.630;2022-09-13T07:06:28;20.70;96.90
21568;DHT22;10944;42.590;12.630;2022-09-13T07:08:56;20.80;97.00
21568;DHT22;10944;42.590;12.630;2022-09-13T07:11:23;20.90;96.80
21568;DHT22;10944;42.590;12.630;2022-09-13T07:13:51;20.90;97.00
21568;DHT22;10944;42.590;12.630;2022-09-13T07:16:18;21.00;96.20
21568;DHT22;10944;42.590;12.630;2022-09-13T07:18:49;21.10;96.40
21568;DHT22;10944;42.590;12.630;2022-09-13T07:21:15;21.20;96.50
21568;DHT22;10944;42.590;12.630;2022-09-13T07:23:42;21.30;96.20
21568;DHT22;10944;42.590;12.630;2022-09-13T07:26:09;21.40;96.10
21568;DHT22;10944;42.590;12.630;2022-09-13T07:28:40;21.50;96.00
21568;DHT22;10944;42.590;12.630;2022-09-13T07:31:28;21.50;95.70
21568;DHT22;10944;42.590;12.630;2022-09-13T07:34:00;21.60;95.80
21568;DHT22;10944;42.590;12.630;2022-09-13T07:36:27;21.70;95.90
21568;DHT22;10944;42.590;12.630;2022-09-13T07:38:53;21.70;95.70
21568;DHT22;10944;42.590;12.630;2022-09-13T07:41:21;21.70;95.90
21568;DHT22;10944;42.590;12.630;2022-09-13T07:43:47;21.80;95.30
21568;DHT22;10944;42.590;12.630;2022-09-13T07:46:38;21.90;95.20
21568;DHT22;10944;42.590;12.630;2022-09-13T07:49:04;21.90;95.30
21568;DHT22;10944;42.590;12.630;2022-09-13T07:51:32;21.90;94.90
21568;DHT22;10944;42.590;12.630;2022-09-13T07:54:01;22.00;94.90
21568;DHT22;10944;42.590;12.630;2022-09-13T07:56:32;22.00;95.50
21568;DHT22;10944;42.590;12.630;2022-09-13T07:58:59;22.10;96.00
21568;DHT22;10944;42.590;12.630;2022-09-13T08:01:33;22.20;94.70
21568;DHT22;10944;42.590;12.630;2022-09-13T08:04:00;22.20;95.70
21568;DHT22;10944;42.590;12.630;2022-09-13T08:06:29;22.30;95.00
21568;DHT22;10944;42.590;12.630;2022-09-13T08:08:56;22.40;95.40
21568;DHT22;10944;42.590;12.630;2022-09-13T08:11:36;22.60;95.10
21568;DHT22;10944;42.590;12.630;2022-09-13T08:14:03;22.70;95.10
21568;DHT22;10944;42.590;12.630;2022-09-13T08:16:30;22.70;95.10
21568;DHT22;10944;42.590;12.630;2022-09-13T08:18:58;22.70;95.20
21568;DHT22;10944;42.590;12.630;2022-09-13T08:21:25;22.90;95.10
21568;DHT22;10944;42.590;12.630;2022-09-13T08:23:55;22.90;94.70
21568;DHT22;10944;42.590;12.630;2022-09-13T08:26:21;22.90;94.70
21568;DHT22;10944;42.590;12.630;2022-09-13T08:28:47;23.00;94.10
21568;DHT22;10944;42.590;12.630;2022-09-13T08:31:14;22.90;94.90
21568;DHT22;10944;42.590;12.630;2022-09-13T08:33:43;23.00;94.40
21568;DHT22;10944;42.590;12.630;2022-09-13T08:36:10;23.00;94.40
21568;DHT22;10944;42.590;12.630;2022-09-13T08:38:36;23.20;95.50
21568;DHT22;10944;42.590;12.630;2022-09-13T08:41:11;23.30;95.00
21568;DHT22;10944;42.590;12.630;2022-09-13T08:43:48;23.40;95.10
21568;DHT22;10944;42.590;12.630;2022-09-13T08:46:24;23.40;94.10
21568;DHT22;10944;42.590;12.630;2022-09-13T08:48:55;23.50;94.00
21568;DHT22;10944;42.590;12.630;2022-09-13T08:51:39;23.40;94.40
21568;DHT22;10944;42.590;12.630;2022-09-13T08:54:10;23.50;95.10
21568;DHT22;10944;42.590;12.630;2022-09-13T08:57:04;23.70;94.40
21568;DHT22;10944;42.590;12.630;2022-09-13T09:05:21;23.60;94.90
21568;DHT22;10944;42.590;12.630;2022-09-13T09:07:51;23.80;94.50
21568;DHT22;10944;42.590;12.630;2022-09-13T09:10:32;23.90;95.00
21568;DHT22;10944;42.590;12.630;2022-09-13T09:13:08;23.90;95.00
21568;DHT22;10944;42.590;12.630;2022-09-13T09:15:42;23.90;94.80
21568;DHT22;10944;42.590;12.630;2022-09-13T09:20:44;24.20;95.10
21568;DHT22;10944;42.590;12.630;2022-09-13T09:23:17;24.10;94.60
21568;DHT22;10944;42.590;12.630;2022-09-13T09:25:44;24.10;94.60
21568;DHT22;10944;42.590;12.630;2022-09-13T09:28:16;24.10;94.60
21568;DHT22;10944;42.590;12.630;2022-09-13T09:36:56;24.40;94.40
21568;DHT22;10944;42.590;12.630;2022-09-13T09:39:13;24.40;94.60
21568;DHT22;10944;42.590;12.630;2022-09-13T09:41:42;24.60;94.80
21568;DHT22;10944;42.590;12.630;2022-09-13T09:46:46;24.70;94.10
21568;DHT22;10944;42.590;12.630;2022-09-13T09:52:18;24.70;94.60
21568;DHT22;10944;42.590;12.630;2022-09-13T09:54:48;24.80;94.40
21568;DHT22;10944;42.590;12.630;2022-09-13T09:57:15;24.90;94.50
21568;DHT22;10944;42.590;12.630;2022-09-13T09:59:43;25.00;94.30
21568;DHT22;10944;42.590;12.630;2022-09-13T10:02:20;24.90;94.20
21568;DHT22;10944;42.590;12.630;2022-09-13T10:05:00;24.80;93.80
21568;DHT22;10944;42.590;12.630;2022-09-13T10:07:32;24.90;95.00
21568;DHT22;10944;42.590;12.630;2022-09-13T10:10:05;25.10;94.40
21568;DHT22;10944;42.590;12.630;2022-09-13T10:12:35;25.20;94.50
21568;DHT22;10944;42.590;12.630;2022-09-13T10:17:35;25.60;95.30
21568;DHT22;10944;42.590;12.630;2022-09-13T10:22:39;25.70;94.80
21568;DHT22;10944;42.590;12.630;2022-09-13T10:25:24;25.60;94.50
21568;DHT22;10944;42.590;12.630;2022-09-13T10:27:56;25.60;94.70
21568;DHT22;10944;42.590;12.630;2022-09-13T10:30:40;25.70;94.60
21568;DHT22;10944;42.590;12.630;2022-09-13T10:33:33;25.70;94.70
21568;DHT22;10944;42.590;12.630;2022-09-13T10:36:03;25.80;94.40
21568;DHT22;10944;42.590;12.630;2022-09-13T10:38:36;25.70;93.70
21568;DHT22;10944;42.590;12.630;2022-09-13T10:41:08;25.70;94.40
21568;DHT22;10944;42.590;12.630;2022-09-13T10:43:36;25.50;94.00
21568;DHT22;10944;42.590;12.630;2022-09-13T10:46:05;25.60;94.20
21568;DHT22;10944;42.590;12.630;2022-09-13T10:48:46;25.60;93.50
21568;DHT22;10944;42.590;12.630;2022-09-13T10:53:50;25.90;94.60
21568;DHT22;10944;42.590;12.630;2022-09-13T10:56:22;25.90;94.10
21568;DHT22;10944;42.590;12.630;2022-09-13T10:58:49;25.90;94.10
21568;DHT22;10944;42.590;12.630;2022-09-13T11:01:19;26.00;93.70
21568;DHT22;10944;42.590;12.630;2022-09-13T11:04:10;26.10;92.50
21568;DHT22;10944;42.590;12.630;2022-09-13T11:07:02;26.30;93.50
21568;DHT22;10944;42.590;12.630;2022-09-13T11:17:24;26.40;91.40
21568;DHT22;10944;42.590;12.630;2022-09-13T11:22:51;26.50;87.70
21568;DHT22;10944;42.590;12.630;2022-09-13T11:33:57;26.60;88.60
21568;DHT22;10944;42.590;12.630;2022-09-13T11:50:00;26.80;88.60
21568;DHT22;10944;42.590;12.630;2022-09-13T11:55:52;26.80;88.80
21568;DHT22;10944;42.590;12.630;2022-09-13T11:58:02;26.90;88.30
21568;DHT22;10944;42.590;12.630;2022-09-13T12:01:00;27.00;89.00
21568;DHT22;10944;42.590;12.630;2022-09-13T12:03:52;27.10;88.40
21568;DHT22;10944;42.590;12.630;2022-09-13T12:06:34;27.10;89.60
21568;DHT22;10944;42.590;12.630;2022-09-13T12:11:57;27.30;88.40
21568;DHT22;10944;42.590;12.630;2022-09-13T12:14:28;27.10;89.30
21568;DHT22;10944;42.590;12.630;2022-09-13T12:16:58;27.00;89.00
21568;DHT22;10944;42.590;12.630;2022-09-13T12:19:42;27.10;90.00
21568;DHT22;10944;42.590;12.630;2022-09-13T12:22:10;27.10;90.20
21568;DHT22;10944;42.590;12.630;2022-09-13T12:24:47;27.20;89.70
21568;DHT22;10944;42.590;12.630;2022-09-13T12:27:40;27.30;89.80
21568;DHT22;10944;42.590;12.630;2022-09-13T12:30:19;27.30;88.90
21568;DHT22;10944;42.590;12.630;2022-09-13T12:32:46;27.20;89.90
21568;DHT22;10944;42.590;12.630;2022-09-13T12:46:25;27.60;89.70
21568;DHT22;10944;42.590;12.630;2022-09-13T12:57:48;27.50;88.60
21568;DHT22;10944;42.590;12.630;2022-09-13T13:10:43;27.70;89.60
21568;DHT22;10944;42.590;12.630;2022-09-13T13:13:22;27.90;89.30
21568;DHT22;10944;42.590;12.630;2022-09-13T13:18:26;28.10;87.80
21568;DHT22;10944;42.590;12.630;2022-09-13T13:23:28;27.60;86.70
21568;DHT22;10944;42.590;12.630;2022-09-13T13:41:57;27.80;85.70
21568;DHT22;10944;42.590;12.630;2022-09-13T13:46:53;27.70;86.90
21568;DHT22;10944;42.590;12.630;2022-09-13T13:57:33;27.80;85.90
21568;DHT22;10944;42.590;12.630;2022-09-13T14:00:19;27.80;85.80
21568;DHT22;10944;42.590;12.630;2022-09-13T14:05:41;27.80;86.20
21568;DHT22;10944;42.590;12.630;2022-09-13T14:11:17;27.70;83.70
21568;DHT22;10944;42.590;12.630;2022-09-13T14:14:20;27.60;84.20
21568;DHT22;10944;42.590;12.630;2022-09-13T14:17:26;27.70;85.80
21568;DHT22;10944;42.590;12.630;2022-09-13T14:20:07;27.80;85.40
21568;DHT22;10944;42.590;12.630;2022-09-13T14:22:34;27.90;84.80
21568;DHT22;10944;42.590;12.630;2022-09-13T14:27:45;27.90;84.80
21568;DHT22;10944;42.590;12.630;2022-09-13T14:30:23;27.90;83.80
21568;DHT22;10944;42.590;12.630;2022-09-13T14:32:54;27.80;84.20
21568;DHT22;10944;42.590;12.630;2022-09-13T14:35:27;27.80;84.20
21568;DHT22;10944;42.590;12.630;2022-09-13T14:37:55;27.80;83.60
21568;DHT22;10944;42.590;12.630;2022-09-13T14:40:25;27.70;83.10
21568;DHT22;10944;42.590;12.630;2022-09-13T14:42:53;27.60;83.60
21568;DHT22;10944;42.590;12.630;2022-09-13T14:45:23;27.50;82.80
21568;DHT22;10944;42.590;12.630;2022-09-13T14:48:07;27.50;82.50
21568;DHT22;10944;42.590;12.630;2022-09-13T14:50:50;27.40;83.80
21568;DHT22;10944;42.590;12.630;2022-09-13T14:53:28;27.40;85.30
21568;DHT22;10944;42.590;12.630;2022-09-13T14:56:18;27.60;84.80
21568;DHT22;10944;42.590;12.630;2022-09-13T14:58:47;27.60;84.20
21568;DHT22;10944;42.590;12.630;2022-09-13T15:01:16;27.50;84.90
21568;DHT22;10944;42.590;12.630;2022-09-13T15:03:45;27.60;86.50
21568;DHT22;10944;42.590;12.630;2022-09-13T15:06:24;27.60;86.50
21568;DHT22;10944;42.590;12.630;2022-09-13T15:08:51;27.60;87.30
21568;DHT22;10944;42.590;12.630;2022-09-13T15:11:32;27.60;85.90
21568;DHT22;10944;42.590;12.630;2022-09-13T15:17:05;27.70;85.10
21568;DHT22;10944;42.590;12.630;2022-09-13T15:22:23;27.60;86.80
21568;DHT22;10944;42.590;12.630;2022-09-13T15:24:57;27.50;83.50
21568;DHT22;10944;42.590;12.630;2022-09-13T15:27:29;27.40;85.90
21568;DHT22;10944;42.590;12.630;2022-09-13T15:30:00;27.40;85.30
21568;DHT22;10944;42.590;12.630;2022-09-13T15:32:31;27.40;84.60
21568;DHT22;10944;42.590;12.630;2022-09-13T15:34:59;27.40;86.40
21568;DHT22;10944;42.590;12.630;2022-09-13T15:37:36;27.60;87.70
21568;DHT22;10944;42.590;12.630;2022-09-13T15:40:15;27.60;87.10
21568;DHT22;10944;42.590;12.630;2022-09-13T15:42:50;27.70;85.10
21568;DHT22;10944;42.590;12.630;2022-09-13T15:45:18;27.70;83.90
21568;DHT22;10944;42.590;12.630;2022-09-13T15:47:50;27.50;85.90
21568;DHT22;10944;42.590;12.630;2022-09-13T15:50:22;27.40;86.10
21568;DHT22;10944;42.590;12.630;2022-09-13T15:52:48;27.30;86.70
21568;DHT22;10944;42.590;12.630;2022-09-13T15:55:14;27.20;87.00
21568;DHT22;10944;42.590;12.630;2022-09-13T15:57:42;27.20;87.90
21568;DHT22;10944;42.590;12.630;2022-09-13T16:00:14;27.20;88.50
21568;DHT22;10944;42.590;12.630;2022-09-13T16:02:40;27.10;87.40
21568;DHT22;10944;42.590;12.630;2022-09-13T16:05:06;27.00;86.20
21568;DHT22;10944;42.590;12.630;2022-09-13T16:07:33;27.00;86.60
21568;DHT22;10944;42.590;12.630;2022-09-13T16:09:59;27.00;87.70
21568;DHT22;10944;42.590;12.630;2022-09-13T16:12:26;26.80;89.00
21568;DHT22;10944;42.590;12.630;2022-09-13T16:14:52;26.80;89.00
21568;DHT22;10944;42.590;12.630;2022-09-13T16:17:24;26.80;88.90
21568;DHT22;10944;42.590;12.630;2022-09-13T16:19:50;26.70;89.80
21568;DHT22;10944;42.590;12.630;2022-09-13T16:22:16;26.60;89.60
21568;DHT22;10944;42.590;12.630;2022-09-13T16:24:42;26.50;90.00
21568;DHT22;10944;42.590;12.630;2022-09-13T16:27:10;26.40;90.00
21568;DHT22;10944;42.590;12.630;2022-09-13T16:29:36;26.30;90.30
21568;DHT22;10944;42.590;12.630;2022-09-13T16:32:03;26.20;90.20
21568;DHT22;10944;42.590;12.630;2022-09-13T16:34:29;26.10;90.40
21568;DHT22;10944;42.590;12.630;2022-09-13T16:36:55;26.00;91.00
21568;DHT22;10944;42.590;12.630;2022-09-13T16:39:20;25.90;90.60
21568;DHT22;10944;42.590;12.630;2022-09-13T16:41:46;25.90;90.60
21568;DHT22;10944;42.590;12.630;2022-09-13T16:44:13;25.90;91.00
21568;DHT22;10944;42.590;12.630;2022-09-13T16:46:39;25.80;90.90
21568;DHT22;10944;42.590;12.630;2022-09-13T16:49:05;25.80;90.60
21568;DHT22;10944;42.590;12.630;2022-09-13T16:51:30;25.80;90.60
21568;DHT22;10944;42.590;12.630;2022-09-13T16:53:56;25.60;91.20
21568;DHT22;10944;42.590;12.630;2022-09-13T16:56:24;25.50;91.60
21568;DHT22;10944;42.590;12.630;2022-09-13T16:58:51;25.40;91.60
21568;DHT22;10944;42.590;12.630;2022-09-13T17:01:20;25.30;91.30
21568;DHT22;10944;42.590;12.630;2022-09-13T17:03:46;25.20;91.60
21568;DHT22;10944;42.590;12.630;2022-09-13T17:06:14;25.00;91.90
21568;DHT22;10944;42.590;12.630;2022-09-13T17:08:44;24.90;92.00
21568;DHT22;10944;42.590;12.630;2022-09-13T17:11:12;24.90;92.00
21568;DHT22;10944;42.590;12.630;2022-09-13T17:13:40;24.70;92.10
21568;DHT22;10944;42.590;12.630;2022-09-13T17:18:44;24.50;92.40
21568;DHT22;10944;42.590;12.630;2022-09-13T17:21:09;24.40;92.60
21568;DHT22;10944;42.590;12.630;2022-09-13T17:23:35;24.40;92.40
21568;DHT22;10944;42.590;12.630;2022-09-13T17:26:01;24.40;92.80
21568;DHT22;10944;42.590;12.630;2022-09-13T17:28:27;24.30;92.90
21568;DHT22;10944;42.590;12.630;2022-09-13T17:30:52;24.10;93.20
21568;DHT22;10944;42.590;12.630;2022-09-13T17:33:18;24.00;93.40
21568;DHT22;10944;42.590;12.630;2022-09-13T17:35:44;23.90;93.70
21568;DHT22;10944;42.590;12.630;2022-09-13T17:38:10;23.80;93.70
21568;DHT22;10944;42.590;12.630;2022-09-13T17:40:36;23.80;93.50
21568;DHT22;10944;42.590;12.630;2022-09-13T17:43:02;23.80;93.60
21568;DHT22;10944;42.590;12.630;2022-09-13T17:45:28;23.80;93.70
21568;DHT22;10944;42.590;12.630;2022-09-13T17:47:54;23.70;93.90
21568;DHT22;10944;42.590;12.630;2022-09-13T17:50:22;23.70;94.00
21568;DHT22;10944;42.590;12.630;2022-09-13T17:52:48;23.60;94.20
21568;DHT22;10944;42.590;12.630;2022-09-13T17:55:16;23.60;94.30
21568;DHT22;10944;42.590;12.630;2022-09-13T17:57:42;23.50;95.30
21568;DHT22;10944;42.590;12.630;2022-09-13T18:00:08;23.40;95.10
21568;DHT22;10944;42.590;12.630;2022-09-13T18:02:36;23.30;95.30
21568;DHT22;10944;42.590;12.630;2022-09-13T18:05:02;23.30;95.50
21568;DHT22;10944;42.590;12.630;2022-09-13T18:07:28;23.20;95.90
21568;DHT22;10944;42.590;12.630;2022-09-13T18:09:54;23.10;96.20
21568;DHT22;10944;42.590;12.630;2022-09-13T18:12:20;22.90;96.30
21568;DHT22;10944;42.590;12.630;2022-09-13T18:14:46;22.90;96.40
21568;DHT22;10944;42.590;12.630;2022-09-13T18:17:12;22.80;97.00
21568;DHT22;10944;42.590;12.630;2022-09-13T18:19:39;22.80;97.20
21568;DHT22;10944;42.590;12.630;2022-09-13T18:22:08;22.70;97.30
21568;DHT22;10944;42.590;12.630;2022-09-13T18:24:34;22.70;97.60
21568;DHT22;10944;42.590;12.630;2022-09-13T18:27:00;22.60;97.80
21568;DHT22;10944;42.590;12.630;2022-09-13T18:29:26;22.60;97.60
21568;DHT22;10944;42.590;12.630;2022-09-13T18:31:53;22.70;97.30
21568;DHT22;10944;42.590;12.630;2022-09-13T18:34:19;22.70;97.10
21568;DHT22;10944;42.590;12.630;2022-09-13T18:36:45;22.80;97.10
21568;DHT22;10944;42.590;12.630;2022-09-13T18:39:16;22.80;96.90
21568;DHT22;10944;42.590;12.630;2022-09-13T18:41:43;22.90;96.80
21568;DHT22;10944;42.590;12.630;2022-09-13T18:44:10;22.90;97.00
21568;DHT22;10944;42.590;12.630;2022-09-13T18:46:36;22.80;97.00
21568;DHT22;10944;42.590;12.630;2022-09-13T18:49:03;22.90;97.10
21568;DHT22;10944;42.590;12.630;2022-09-13T18:51:40;22.80;97.10
21568;DHT22;10944;42.590;12.630;2022-09-13T18:54:09;22.90;97.10